createdAt,value
2018-03-04T00:01:31.934Z,146.10
2018-03-04T00:03:59.381Z,153.60
2018-03-04T00:06:26.833Z,138.20
2018-03-04T00:08:54.305Z,135.63
2018-03-04T00:11:21.756Z,144.37
2018-03-04T00:13:49.449Z,132.83
2018-03-04T00:16:16.930Z,140.27
2018-03-04T00:18:44.385Z,143.83
2018-03-04T00:21:11.865Z,147.03
2018-03-04T00:23:39.313Z,129.43
2018-03-04T00:26:06.821Z,133.67
2018-03-04T00:28:34.274Z,141.57
2018-03-04T00:31:01.725Z,144.87
2018-03-04T00:33:29.194Z,135.00
2018-03-04T00:35:56.651Z,141.57
2018-03-04T00:38:24.134Z,138.07
2018-03-04T00:40:51.581Z,132.57
2018-03-04T00:43:19.034Z,146.03
2018-03-04T00:45:46.505Z,164.43
2018-03-04T00:48:13.962Z,131.10
2018-03-04T00:50:41.453Z,124.77
2018-03-04T00:53:08.915Z,146.00
2018-03-04T00:55:36.384Z,142.13
2018-03-04T00:58:03.856Z,134.23
2018-03-04T01:00:31.305Z,128.93
2018-03-04T01:02:58.809Z,142.43
2018-03-04T01:05:26.260Z,129.73
2018-03-04T01:07:53.713Z,142.73
2018-03-04T01:10:21.206Z,162.57
2018-03-04T01:12:48.665Z,151.53
2018-03-04T01:15:16.406Z,135.13
2018-03-04T01:17:43.873Z,145.03
2018-03-04T01:20:11.334Z,154.03
2018-03-04T01:22:38.830Z,146.20
2018-03-04T01:25:06.312Z,154.33
2018-03-04T01:27:33.924Z,133.93
2018-03-04T01:30:01.373Z,140.83
2018-03-04T01:32:28.822Z,142.57
2018-03-04T01:34:56.294Z,168.73
2018-03-04T01:37:23.754Z,147.23
2018-03-04T01:39:51.374Z,162.10
2018-03-04T01:42:18.825Z,143.50
2018-03-04T01:44:46.284Z,152.17
2018-03-04T01:47:13.762Z,146.87
2018-03-04T01:49:41.214Z,138.07
2018-03-04T01:52:08.838Z,173.60
2018-03-04T01:54:36.301Z,156.27
2018-03-04T01:57:03.753Z,160.40
2018-03-04T01:59:31.221Z,157.00
2018-03-04T02:01:58.700Z,157.20
2018-03-04T02:04:26.182Z,132.97
2018-03-04T02:06:53.633Z,151.57
2018-03-04T02:09:21.081Z,143.63
2018-03-04T02:11:48.553Z,130.33
2018-03-04T02:14:15.998Z,139.97
2018-03-04T02:16:43.488Z,134.43
2018-03-04T02:19:10.941Z,146.33
2018-03-04T02:21:38.389Z,135.60
2018-03-04T02:24:05.861Z,141.73
2018-03-04T02:26:33.333Z,133.20
2018-03-04T02:29:01.106Z,146.73
2018-03-04T02:31:28.551Z,151.00
2018-03-04T02:33:56.005Z,139.43
2018-03-04T02:36:23.481Z,145.10
2018-03-04T02:38:50.942Z,155.00
2018-03-04T02:41:18.640Z,140.50
2018-03-04T02:43:46.095Z,148.40
2018-03-04T02:46:13.550Z,133.83
2018-03-04T02:48:41.017Z,143.63
2018-03-04T02:51:08.506Z,137.97
2018-03-04T02:53:36.010Z,142.07
2018-03-04T02:56:03.457Z,151.00
2018-03-04T02:58:30.914Z,160.10
2018-03-04T03:00:58.384Z,157.80
2018-03-04T03:03:25.834Z,155.33
2018-03-04T03:05:53.336Z,158.83
2018-03-04T03:08:20.801Z,158.43
2018-03-04T03:10:48.249Z,150.93
2018-03-04T03:13:15.733Z,146.30
2018-03-04T03:15:43.189Z,138.33
2018-03-04T03:18:10.681Z,142.77
2018-03-04T03:20:38.158Z,139.87
2018-03-04T03:23:05.610Z,151.93
2018-03-04T03:25:33.081Z,163.37
2018-03-04T03:28:00.529Z,154.30
2018-03-04T03:30:27.997Z,174.03
2018-03-04T03:32:55.446Z,159.63
2018-03-04T03:35:22.926Z,160.73
2018-03-04T03:37:50.397Z,150.70
2018-03-04T03:40:17.853Z,150.63
2018-03-04T03:42:45.448Z,156.77
2018-03-04T03:45:12.901Z,139.17
2018-03-04T03:47:40.349Z,150.20
2018-03-04T03:50:07.852Z,145.07
2018-03-04T03:52:35.293Z,154.73
2018-03-04T03:55:03.006Z,162.03
2018-03-04T03:57:30.463Z,153.87
2018-03-04T03:59:57.909Z,142.83
2018-03-04T04:02:25.382Z,135.53
2018-03-04T04:04:52.834Z,155.67
2018-03-04T04:07:20.469Z,141.03
2018-03-04T04:09:47.916Z,175.07
2018-03-04T04:12:15.361Z,158.73
2018-03-04T04:14:42.866Z,142.47
2018-03-04T04:17:10.349Z,162.43
2018-03-04T04:19:38.329Z,157.17
2018-03-04T04:22:05.785Z,151.20
2018-03-04T04:24:33.237Z,152.97
2018-03-04T04:27:00.704Z,154.17
2018-03-04T04:29:28.154Z,145.70
2018-03-04T04:31:55.838Z,157.73
2018-03-04T04:34:23.317Z,156.20
2018-03-04T04:36:50.791Z,151.10
2018-03-04T04:39:18.331Z,166.37
2018-03-04T04:41:45.772Z,157.53
2018-03-04T04:44:13.422Z,157.30
2018-03-04T04:46:40.871Z,164.40
2018-03-04T04:49:08.334Z,174.23
2018-03-04T04:51:35.812Z,158.17
2018-03-04T04:54:03.258Z,153.13
2018-03-04T04:56:30.737Z,155.13
2018-03-04T04:58:58.189Z,157.17
2018-03-04T05:01:25.637Z,165.63
2018-03-04T05:03:53.110Z,153.10
2018-03-04T05:06:20.565Z,176.07
2018-03-04T05:08:48.525Z,173.70
2018-03-04T05:11:15.973Z,172.00
2018-03-04T05:13:43.438Z,160.30
2018-03-04T05:16:10.921Z,149.83
2018-03-04T05:18:38.373Z,173.07
2018-03-04T05:21:06.173Z,154.77
2018-03-04T05:23:33.634Z,165.87
2018-03-04T05:26:01.093Z,165.43
2018-03-04T05:28:28.561Z,150.47
2018-03-04T05:30:56.024Z,158.80
2018-03-04T05:33:23.494Z,171.47
2018-03-04T05:35:50.949Z,165.60
2018-03-04T05:38:18.432Z,152.30
2018-03-04T05:40:45.906Z,170.43
2018-03-04T05:43:13.369Z,166.77
2018-03-04T05:45:40.873Z,159.43
2018-03-04T05:48:08.313Z,175.57
2018-03-04T05:50:35.762Z,184.63
2018-03-04T05:53:03.229Z,161.03
2018-03-04T05:55:30.676Z,170.90
2018-03-04T05:57:58.313Z,163.20
2018-03-04T06:00:25.769Z,176.70
2018-03-04T06:02:53.218Z,150.97
2018-03-04T06:05:20.706Z,174.40
2018-03-04T06:07:48.161Z,156.67
2018-03-04T06:10:15.652Z,166.60
2018-03-04T06:12:43.101Z,174.00
2018-03-04T06:15:10.552Z,163.50
2018-03-04T06:17:38.020Z,168.60
2018-03-04T06:20:05.474Z,207.70
2018-03-04T06:22:33.089Z,211.43
2018-03-04T06:25:00.546Z,183.93
2018-03-04T06:27:28.002Z,213.00
2018-03-04T06:29:55.522Z,178.20
2018-03-04T06:32:22.947Z,222.30
2018-03-04T06:34:50.873Z,267.90
2018-03-04T06:37:18.325Z,216.67
2018-03-04T06:39:45.773Z,238.73
2018-03-04T06:42:13.253Z,239.50
2018-03-04T06:44:40.717Z,261.60
2018-03-04T06:47:08.322Z,260.97
2018-03-04T06:49:35.793Z,239.70
2018-03-04T06:52:03.239Z,279.67
2018-03-04T06:54:30.716Z,263.23
2018-03-04T06:56:58.169Z,272.13
2018-03-04T06:59:25.658Z,295.87
2018-03-04T07:01:53.114Z,243.23
2018-03-04T07:04:20.581Z,260.60
2018-03-04T07:06:48.063Z,293.53
2018-03-04T07:09:15.519Z,288.37
2018-03-04T07:11:43.005Z,267.07
2018-03-04T07:14:10.490Z,321.17
2018-03-04T07:16:37.961Z,300.73
2018-03-04T07:19:05.426Z,276.03
2018-03-04T07:21:32.885Z,258.20
2018-03-04T07:24:00.377Z,274.63
2018-03-04T07:26:27.838Z,277.80
2018-03-04T07:28:55.301Z,266.17
2018-03-04T07:31:22.789Z,271.37
2018-03-04T07:33:50.233Z,253.13
2018-03-04T07:36:17.714Z,266.90
2018-03-04T07:38:45.169Z,260.37
2018-03-04T07:41:12.640Z,296.67
2018-03-04T07:43:40.114Z,297.30
2018-03-04T07:46:07.576Z,281.27
2018-03-04T07:48:35.062Z,254.20
2018-03-04T07:51:02.521Z,249.40
2018-03-04T07:53:29.996Z,289.70
2018-03-04T07:55:57.465Z,293.27
2018-03-04T07:58:24.913Z,261.27
2018-03-04T08:00:52.402Z,337.67
2018-03-04T08:03:19.860Z,283.90
2018-03-04T08:05:47.320Z,264.33
2018-03-04T08:08:14.792Z,265.13
2018-03-04T08:10:42.245Z,265.33
2018-03-04T08:13:10.099Z,271.53
2018-03-04T08:15:37.550Z,320.43
2018-03-04T08:18:05.027Z,297.57
2018-03-04T08:20:32.509Z,240.00
2018-03-04T08:22:59.987Z,277.03
2018-03-04T08:25:33.351Z,284.00
2018-03-04T08:28:12.797Z,216.90
2018-03-04T08:30:40.574Z,324.83
2018-03-04T08:33:08.032Z,309.07
2018-03-04T08:35:35.493Z,392.20
2018-03-04T08:38:03.009Z,284.23
2018-03-04T08:40:30.459Z,273.67
2018-03-04T08:42:58.125Z,268.43
2018-03-04T08:45:25.601Z,272.17
2018-03-04T08:47:53.067Z,283.60
2018-03-04T08:50:20.545Z,347.20
2018-03-04T08:52:48.025Z,325.83
2018-03-04T08:55:15.712Z,336.57
2018-03-04T08:57:43.205Z,250.00
2018-03-04T09:00:10.692Z,362.80
2018-03-04T09:02:38.161Z,190.50
2018-03-04T09:05:05.611Z,210.23
2018-03-04T09:07:33.122Z,168.53
2018-03-04T09:10:00.591Z,195.03
2018-03-04T09:12:28.046Z,221.63
2018-03-04T09:14:55.521Z,189.57
2018-03-04T09:17:22.985Z,215.87
2018-03-04T09:19:51.321Z,185.60
2018-03-04T09:22:18.795Z,143.10
2018-03-04T09:24:46.240Z,139.30
2018-03-04T09:27:13.709Z,125.77
2018-03-04T09:29:41.221Z,134.17
2018-03-04T09:32:09.001Z,119.17
2018-03-04T09:34:36.454Z,133.20
2018-03-04T09:37:03.929Z,103.90
2018-03-04T09:39:31.418Z,103.40
2018-03-04T09:41:58.864Z,136.87
2018-03-04T09:44:26.357Z,116.23
2018-03-04T09:46:53.802Z,136.07
2018-03-04T09:49:21.525Z,108.83
2018-03-04T09:51:49.906Z,122.70
2018-03-04T09:54:17.365Z,105.37
2018-03-04T09:56:44.872Z,122.23
2018-03-04T09:59:12.325Z,129.40
2018-03-04T10:01:39.812Z,120.87
2018-03-04T10:04:07.286Z,121.73
2018-03-04T10:06:34.749Z,102.83
2018-03-04T10:09:02.377Z,106.17
2018-03-04T10:11:29.853Z,116.20
2018-03-04T10:13:57.304Z,114.30
2018-03-04T10:16:24.796Z,100.03
2018-03-04T10:18:52.265Z,107.73
2018-03-04T10:21:19.758Z,119.53
2018-03-04T10:23:47.225Z,109.10
2018-03-04T10:26:14.698Z,109.77
2018-03-04T10:28:42.185Z,93.57
2018-03-04T10:31:09.662Z,119.27
2018-03-04T10:33:37.429Z,121.90
2018-03-04T10:36:04.877Z,117.70
2018-03-04T10:38:32.337Z,141.37
2018-03-04T10:40:59.811Z,124.50
2018-03-04T10:43:27.279Z,99.43
2018-03-04T10:45:54.751Z,101.30
2018-03-04T10:48:22.423Z,119.90
2018-03-04T10:50:49.882Z,130.87
2018-03-04T10:53:17.366Z,128.13
2018-03-04T10:55:44.813Z,110.50
2018-03-04T10:58:12.297Z,121.07
2018-03-04T11:00:48.330Z,119.37
2018-03-04T11:03:15.897Z,124.10
2018-03-04T11:05:43.375Z,118.90
2018-03-04T11:08:10.835Z,116.93
2018-03-04T11:10:38.304Z,112.37
2018-03-04T11:13:05.781Z,126.10
2018-03-04T11:15:33.413Z,116.10
2018-03-04T11:18:00.873Z,122.33
2018-03-04T11:20:28.393Z,117.17
2018-03-04T11:22:55.857Z,133.63
2018-03-04T11:25:23.336Z,166.73
2018-03-04T11:27:50.937Z,113.63
2018-03-04T11:30:18.393Z,139.03
2018-03-04T11:32:45.841Z,141.50
2018-03-04T11:35:13.321Z,128.63
2018-03-04T11:37:40.773Z,149.13
2018-03-04T11:40:08.417Z,152.77
2018-03-04T11:42:35.865Z,161.53
2018-03-04T11:45:03.316Z,129.00
2018-03-04T11:47:30.841Z,152.07
2018-03-04T11:49:58.296Z,132.37
2018-03-04T11:52:26.069Z,157.83
2018-03-04T11:54:53.529Z,128.17
2018-03-04T11:57:20.994Z,160.07
2018-03-04T11:59:48.477Z,136.67
2018-03-04T12:02:15.930Z,119.70
2018-03-04T12:04:43.624Z,144.40
2018-03-04T12:07:11.087Z,128.03
2018-03-04T12:09:38.555Z,140.57
2018-03-04T12:12:06.026Z,151.67
2018-03-04T12:14:33.500Z,153.73
2018-03-04T12:17:01.205Z,168.17
2018-03-04T12:19:28.682Z,159.00
2018-03-04T12:21:56.135Z,187.50
2018-03-04T12:24:23.634Z,142.87
2018-03-04T12:26:51.085Z,141.33
2018-03-04T12:29:18.726Z,127.33
2018-03-04T12:31:46.173Z,145.50
2018-03-04T12:34:13.618Z,131.67
2018-03-04T12:36:41.145Z,142.27
2018-03-04T12:39:08.553Z,143.53
2018-03-04T12:41:36.041Z,139.30
2018-03-04T12:44:03.489Z,149.73
2018-03-04T12:46:30.938Z,161.13
2018-03-04T12:48:58.451Z,159.07
2018-03-04T12:51:25.902Z,151.27
2018-03-04T12:53:53.384Z,142.93
2018-03-04T12:56:20.850Z,146.57
2018-03-04T12:58:48.312Z,153.43
2018-03-04T13:01:15.844Z,149.13
2018-03-04T13:03:43.281Z,156.27
2018-03-04T13:06:10.850Z,145.87
2018-03-04T13:08:38.325Z,137.97
2018-03-04T13:11:05.777Z,149.70
2018-03-04T13:13:33.245Z,135.13
2018-03-04T13:16:00.693Z,150.60
2018-03-04T13:18:28.350Z,161.87
2018-03-04T13:20:55.806Z,138.17
2018-03-04T13:23:23.266Z,157.23
2018-03-04T13:25:50.737Z,145.17
2018-03-04T13:28:18.183Z,155.90
2018-03-04T13:30:45.994Z,135.27
2018-03-04T13:33:13.489Z,120.53
2018-03-04T13:35:40.932Z,133.53
2018-03-04T13:38:08.420Z,130.83
2018-03-04T13:40:35.899Z,122.03
2018-03-04T13:43:03.425Z,121.77
2018-03-04T13:45:30.878Z,136.67
2018-03-04T13:47:58.325Z,118.67
2018-03-04T13:50:25.793Z,141.47
2018-03-04T13:52:53.241Z,126.67
2018-03-04T13:55:20.732Z,131.80
2018-03-04T13:57:48.179Z,137.50
2018-03-04T14:00:15.634Z,129.67
2018-03-04T14:02:43.112Z,146.10
2018-03-04T14:05:10.606Z,166.60
2018-03-04T14:07:38.105Z,156.20
2018-03-04T14:10:05.660Z,154.13
2018-03-04T14:12:33.111Z,180.47
2018-03-04T14:15:00.591Z,169.33
2018-03-04T14:17:28.046Z,149.27
2018-03-04T14:19:55.551Z,155.00
2018-03-04T14:22:23.005Z,177.63
2018-03-04T14:24:50.489Z,186.43
2018-03-04T14:27:17.982Z,178.37
2018-03-04T14:29:45.430Z,176.77
2018-03-04T14:32:13.026Z,169.63
2018-03-04T14:34:40.485Z,170.73
2018-03-04T14:37:07.934Z,176.00
2018-03-04T14:39:35.406Z,182.23
2018-03-04T14:42:02.881Z,175.10
2018-03-04T14:44:30.687Z,160.17
2018-03-04T14:46:58.145Z,147.57
2018-03-04T14:49:25.620Z,168.80
2018-03-04T14:51:53.117Z,177.13
2018-03-04T14:54:20.569Z,170.73
2018-03-04T14:56:48.062Z,174.83
2018-03-04T14:59:15.552Z,158.50
2018-03-04T15:01:42.997Z,160.63
2018-03-04T15:04:10.491Z,180.33
2018-03-04T15:06:37.945Z,177.90
2018-03-04T15:09:05.668Z,153.73
2018-03-04T15:11:33.145Z,167.87
2018-03-04T15:14:00.594Z,171.07
2018-03-04T15:16:28.093Z,158.43
2018-03-04T15:18:55.553Z,160.23
2018-03-04T15:21:23.062Z,151.20
2018-03-04T15:23:50.534Z,164.23
2018-03-04T15:26:17.992Z,152.63
2018-03-04T15:28:45.463Z,156.20
2018-03-04T15:31:12.912Z,162.63
2018-03-04T15:33:40.394Z,181.20
2018-03-04T15:36:07.861Z,159.27
2018-03-04T15:38:35.310Z,167.23
2018-03-04T15:41:02.847Z,168.20
2018-03-04T15:43:30.303Z,184.77
2018-03-04T15:45:57.933Z,159.10
2018-03-04T15:48:25.434Z,157.27
2018-03-04T15:50:52.886Z,157.47
2018-03-04T15:53:20.361Z,156.67
2018-03-04T15:55:47.863Z,149.10
2018-03-04T15:58:15.588Z,167.70
2018-03-04T16:00:43.044Z,176.63
2018-03-04T16:03:10.678Z,172.73
2018-03-04T16:05:38.159Z,150.13
2018-03-04T16:08:05.609Z,166.17
2018-03-04T16:10:33.199Z,181.80
2018-03-04T16:13:00.654Z,159.07
2018-03-04T16:15:28.118Z,153.27
2018-03-04T16:17:56.391Z,160.53
2018-03-04T16:20:23.853Z,165.80
2018-03-04T16:22:51.718Z,178.77
2018-03-04T16:25:19.203Z,164.77
2018-03-04T16:27:46.669Z,171.10
2018-03-04T16:30:14.149Z,169.03
2018-03-04T16:32:41.610Z,169.10
2018-03-04T16:35:09.470Z,170.90
2018-03-04T16:37:36.952Z,162.10
2018-03-04T16:40:04.423Z,165.33
2018-03-04T16:42:31.923Z,187.67
2018-03-04T16:44:59.815Z,163.00
2018-03-04T16:47:27.293Z,160.30
2018-03-04T16:49:54.752Z,169.20
2018-03-04T16:52:22.399Z,179.00
2018-03-04T16:54:49.886Z,168.43
2018-03-04T16:57:17.370Z,182.30
2018-03-04T16:59:45.049Z,165.90
2018-03-04T17:02:12.514Z,137.50
2018-03-04T17:04:39.980Z,163.17
2018-03-04T17:07:07.469Z,167.17
2018-03-04T17:09:34.925Z,156.57
2018-03-04T17:12:02.751Z,141.33
2018-03-04T17:14:30.202Z,141.10
2018-03-04T17:16:57.657Z,159.40
2018-03-04T17:19:25.154Z,160.67
2018-03-04T17:21:52.619Z,151.80
2018-03-04T17:24:20.107Z,158.67
2018-03-04T17:26:47.583Z,145.03
2018-03-04T17:29:15.042Z,151.37
2018-03-04T17:31:42.523Z,156.93
2018-03-04T17:34:09.973Z,146.87
2018-03-04T17:36:37.761Z,145.57
2018-03-04T17:39:05.237Z,134.87
2018-03-04T17:41:32.693Z,165.20
2018-03-04T17:44:00.195Z,156.53
2018-03-04T17:46:27.649Z,171.30
2018-03-04T17:48:55.151Z,139.43
2018-03-04T17:51:22.607Z,155.83
2018-03-04T17:53:50.080Z,139.20
2018-03-04T17:56:17.566Z,170.37
2018-03-04T17:58:45.025Z,143.73
2018-03-04T18:01:12.533Z,140.33
2018-03-04T18:03:39.989Z,179.80
2018-03-04T18:06:07.464Z,157.63
2018-03-04T18:08:34.956Z,156.70
2018-03-04T18:11:02.405Z,164.90
2018-03-04T18:13:29.994Z,164.90
2018-03-04T18:15:57.458Z,158.80
2018-03-04T18:18:24.917Z,171.03
2018-03-04T18:20:52.422Z,159.90
2018-03-04T18:23:19.890Z,137.43
2018-03-04T18:25:47.546Z,163.93
2018-03-04T18:28:15.001Z,156.80
2018-03-04T18:30:42.466Z,157.90
2018-03-04T18:33:09.943Z,143.17
2018-03-04T18:35:37.405Z,144.47
2018-03-04T18:38:04.889Z,139.77
2018-03-04T18:40:32.361Z,164.57
2018-03-04T18:42:59.835Z,140.77
2018-03-04T18:45:27.318Z,163.53
2018-03-04T18:47:54.784Z,172.57
2018-03-04T18:50:22.569Z,186.37
2018-03-04T18:52:50.221Z,152.23
2018-03-04T18:55:17.694Z,168.63
2018-03-04T18:57:45.145Z,169.60
2018-03-04T19:00:12.838Z,177.10
2018-03-04T19:02:40.298Z,160.20
2018-03-04T19:05:07.753Z,150.13
2018-03-04T19:07:35.243Z,182.53
2018-03-04T19:10:02.743Z,146.80
2018-03-04T19:12:30.597Z,148.40
2018-03-04T19:14:58.053Z,173.33
2018-03-04T19:17:25.510Z,155.30
2018-03-04T19:19:52.989Z,158.40
2018-03-04T19:22:20.482Z,158.57
2018-03-04T19:24:48.154Z,156.47
2018-03-04T19:27:15.614Z,156.07
2018-03-04T19:29:43.954Z,142.77
2018-03-04T19:32:11.441Z,151.63
2018-03-04T19:34:39.720Z,133.20
2018-03-04T19:37:07.343Z,132.67
2018-03-04T19:39:34.817Z,145.07
2018-03-04T19:42:02.266Z,141.97
2018-03-04T19:44:29.748Z,141.80
2018-03-04T19:46:58.197Z,161.77
2018-03-04T19:49:25.690Z,134.37
2018-03-04T19:51:53.165Z,152.67
2018-03-04T19:54:20.617Z,141.20
2018-03-04T19:56:48.102Z,145.80
2018-03-04T19:59:15.559Z,168.20
2018-03-04T20:01:43.062Z,161.60
2018-03-04T20:04:10.543Z,159.47
2018-03-04T20:06:38.002Z,179.93
2018-03-04T20:09:06.329Z,169.10
2018-03-04T20:11:33.948Z,161.40
2018-03-04T20:14:01.561Z,179.90
2018-03-04T20:16:29.009Z,172.90
2018-03-04T20:18:56.477Z,187.30
2018-03-04T20:21:23.950Z,154.20
2018-03-04T20:23:51.430Z,166.50
2018-03-04T20:26:19.096Z,167.17
2018-03-04T20:28:46.558Z,180.83
2018-03-04T20:31:14.033Z,183.10
2018-03-04T20:33:41.528Z,208.20
2018-03-04T20:36:08.988Z,187.90
2018-03-04T20:38:36.981Z,182.13
2018-03-04T20:41:04.448Z,171.10
2018-03-04T20:43:31.900Z,197.70
2018-03-04T20:45:59.365Z,177.10
2018-03-04T20:48:26.830Z,199.53
2018-03-04T20:50:54.498Z,203.33
2018-03-04T20:53:21.947Z,213.83
2018-03-04T20:55:49.402Z,194.87
2018-03-04T20:58:16.879Z,207.20
2018-03-04T21:00:44.332Z,187.53
2018-03-04T21:03:11.826Z,166.30
2018-03-04T21:05:39.300Z,183.83
2018-03-04T21:08:06.750Z,211.50
2018-03-04T21:10:34.249Z,195.93
2018-03-04T21:13:01.701Z,174.73
2018-03-04T21:15:29.191Z,183.30
2018-03-04T21:17:56.641Z,176.80
2018-03-04T21:20:24.094Z,169.90
2018-03-04T21:22:51.574Z,216.93
2018-03-04T21:25:19.020Z,191.40
2018-03-04T21:27:46.525Z,191.70
2018-03-04T21:30:13.994Z,163.90
2018-03-04T21:32:41.590Z,187.40
2018-03-04T21:35:09.041Z,174.43
2018-03-04T21:37:36.494Z,174.13
2018-03-04T21:40:03.962Z,161.60
2018-03-04T21:42:31.424Z,206.17
2018-03-04T21:44:59.138Z,194.40
2018-03-04T21:47:26.637Z,203.60
2018-03-04T21:49:54.115Z,212.57
2018-03-04T21:52:21.587Z,197.43
2018-03-04T21:54:49.043Z,173.70
2018-03-04T21:57:16.518Z,192.23
2018-03-04T21:59:43.982Z,184.77
2018-03-04T22:02:11.464Z,193.57
2018-03-04T22:04:38.951Z,190.63
2018-03-04T22:07:06.406Z,199.70
2018-03-04T22:09:34.242Z,170.57
2018-03-04T22:12:01.690Z,197.97
2018-03-04T22:14:29.149Z,211.57
2018-03-04T22:16:56.629Z,193.83
2018-03-04T22:19:24.082Z,200.57
2018-03-04T22:21:51.569Z,194.07
2018-03-04T22:24:19.017Z,202.47
2018-03-04T22:26:46.492Z,187.30
2018-03-04T22:29:13.983Z,163.43
2018-03-04T22:31:41.429Z,182.37
2018-03-04T22:34:08.918Z,185.37
2018-03-04T22:36:36.377Z,177.47
2018-03-04T22:39:03.824Z,158.50
2018-03-04T22:41:31.298Z,189.67
2018-03-04T22:43:58.773Z,177.67
2018-03-04T22:46:26.265Z,173.93
2018-03-04T22:48:53.713Z,177.83
2018-03-04T22:51:21.162Z,188.80
2018-03-04T22:53:48.646Z,192.53
2018-03-04T22:56:16.097Z,172.07
2018-03-04T22:58:43.593Z,188.07
2018-03-04T23:01:11.041Z,204.53
2018-03-04T23:03:38.481Z,184.70
2018-03-04T23:06:05.972Z,177.03
2018-03-04T23:08:33.422Z,178.00
2018-03-04T23:11:01.081Z,155.70
2018-03-04T23:13:28.529Z,187.47
2018-03-04T23:15:55.977Z,158.03
2018-03-04T23:18:23.453Z,166.90
2018-03-04T23:20:50.910Z,155.53
2018-03-04T23:23:18.394Z,149.30
2018-03-04T23:25:45.861Z,143.47
2018-03-04T23:28:13.338Z,127.87
2018-03-04T23:30:40.821Z,145.83
2018-03-04T23:33:08.269Z,113.03
2018-03-04T23:35:35.994Z,122.50
2018-03-04T23:38:03.449Z,133.27
2018-03-04T23:40:30.899Z,108.30
2018-03-04T23:42:58.369Z,107.20
2018-03-04T23:45:25.837Z,113.33
2018-03-04T23:47:53.630Z,99.50
2018-03-04T23:50:21.078Z,118.00
2018-03-04T23:52:48.533Z,126.90
2018-03-04T23:55:16.024Z,104.17
2018-03-04T23:57:43.491Z,100.83
